sensor_id;sensor_type;location;lat;lon;timestamp;P1;durP1;ratioP1;P2;durP2;ratioP2
50968;SDS011;36982;51.474;7.228;2024-01-30T00:01:54;5.73;;;4.30;;
50968;SDS011;36982;51.474;7.228;2024-01-30T00:04:20;5.23;;;4.23;;
50968;SDS011;36982;51.474;7.228;2024-01-30T00:06:45;6.83;;;4.37;;
50968;SDS011;36982;51.474;7.228;2024-01-30T00:09:11;7.57;;;4.90;;
50968;SDS011;36982;51.474;7.228;2024-01-30T00:11:37;6.90;;;4.27;;
50968;SDS011;36982;51.474;7.228;2024-01-30T00:14:03;7.73;;;4.53;;
50968;SDS011;36982;51.474;7.228;2024-01-30T00:16:29;7.97;;;4.53;;
50968;SDS011;36982;51.474;7.228;2024-01-30T00:18:55;7.80;;;4.70;;
50968;SDS011;36982;51.474;7.228;2024-01-30T00:21:21;8.07;;;4.70;;
50968;SDS011;36982;51.474;7.228;2024-01-30T00:23:47;7.53;;;4.63;;
50968;SDS011;36982;51.474;7.228;2024-01-30T00:26:13;5.57;;;4.27;;
50968;SDS011;36982;51.474;7.228;2024-01-30T00:28:42;7.63;;;4.90;;
50968;SDS011;36982;51.474;7.228;2024-01-30T00:31:08;7.43;;;4.70;;
50968;SDS011;36982;51.474;7.228;2024-01-30T00:33:38;7.67;;;4.80;;
50968;SDS011;36982;51.474;7.228;2024-01-30T00:36:04;6.50;;;4.77;;
50968;SDS011;36982;51.474;7.228;2024-01-30T00:38:31;6.97;;;4.83;;
50968;SDS011;36982;51.474;7.228;2024-01-30T00:40:57;7.20;;;4.77;;
50968;SDS011;36982;51.474;7.228;2024-01-30T00:43:22;8.00;;;4.37;;
50968;SDS011;36982;51.474;7.228;2024-01-30T00:45:49;6.00;;;4.50;;
50968;SDS011;36982;51.474;7.228;2024-01-30T00:48:17;7.53;;;4.67;;
50968;SDS011;36982;51.474;7.228;2024-01-30T00:50:42;6.03;;;4.43;;
50968;SDS011;36982;51.474;7.228;2024-01-30T00:53:08;6.97;;;4.53;;
50968;SDS011;36982;51.474;7.228;2024-01-30T00:55:34;6.13;;;4.37;;
50968;SDS011;36982;51.474;7.228;2024-01-30T00:58:00;8.10;;;4.63;;
50968;SDS011;36982;51.474;7.228;2024-01-30T01:00:26;7.07;;;4.70;;
50968;SDS011;36982;51.474;7.228;2024-01-30T01:02:55;6.60;;;4.50;;
50968;SDS011;36982;51.474;7.228;2024-01-30T01:05:20;8.43;;;4.63;;
50968;SDS011;36982;51.474;7.228;2024-01-30T01:07:46;6.43;;;4.63;;
50968;SDS011;36982;51.474;7.228;2024-01-30T01:10:15;7.80;;;4.77;;
50968;SDS011;36982;51.474;7.228;2024-01-30T01:12:44;8.60;;;5.10;;
50968;SDS011;36982;51.474;7.228;2024-01-30T01:15:10;8.53;;;4.87;;
50968;SDS011;36982;51.474;7.228;2024-01-30T01:17:36;9.43;;;5.20;;
50968;SDS011;36982;51.474;7.228;2024-01-30T01:20:03;7.67;;;4.47;;
50968;SDS011;36982;51.474;7.228;2024-01-30T01:22:30;7.13;;;4.87;;
50968;SDS011;36982;51.474;7.228;2024-01-30T01:24:56;5.97;;;4.10;;
50968;SDS011;36982;51.474;7.228;2024-01-30T01:27:21;8.37;;;5.20;;
50968;SDS011;36982;51.474;7.228;2024-01-30T01:29:47;6.53;;;4.50;;
50968;SDS011;36982;51.474;7.228;2024-01-30T01:32:13;8.10;;;5.00;;
50968;SDS011;36982;51.474;7.228;2024-01-30T01:34:38;7.73;;;4.70;;
50968;SDS011;36982;51.474;7.228;2024-01-30T01:37:04;9.67;;;5.67;;
50968;SDS011;36982;51.474;7.228;2024-01-30T01:39:29;9.20;;;5.17;;
50968;SDS011;36982;51.474;7.228;2024-01-30T01:41:55;9.63;;;4.97;;
50968;SDS011;36982;51.474;7.228;2024-01-30T01:44:21;7.57;;;4.27;;
50968;SDS011;36982;51.474;7.228;2024-01-30T01:46:46;8.33;;;4.73;;
50968;SDS011;36982;51.474;7.228;2024-01-30T01:49:13;8.33;;;5.43;;
50968;SDS011;36982;51.474;7.228;2024-01-30T01:51:39;8.43;;;4.83;;
50968;SDS011;36982;51.474;7.228;2024-01-30T01:54:06;8.70;;;5.10;;
50968;SDS011;36982;51.474;7.228;2024-01-30T01:56:33;7.47;;;4.57;;
50968;SDS011;36982;51.474;7.228;2024-01-30T01:59:00;7.40;;;5.30;;
50968;SDS011;36982;51.474;7.228;2024-01-30T02:01:29;8.87;;;5.00;;
50968;SDS011;36982;51.474;7.228;2024-01-30T02:03:58;7.57;;;4.93;;
50968;SDS011;36982;51.474;7.228;2024-01-30T02:06:24;7.90;;;4.80;;
50968;SDS011;36982;51.474;7.228;2024-01-30T02:08:49;7.13;;;4.77;;
50968;SDS011;36982;51.474;7.228;2024-01-30T02:11:15;7.67;;;5.00;;
50968;SDS011;36982;51.474;7.228;2024-01-30T02:13:41;7.37;;;4.70;;
50968;SDS011;36982;51.474;7.228;2024-01-30T02:16:07;9.13;;;4.43;;
50968;SDS011;36982;51.474;7.228;2024-01-30T02:18:33;7.57;;;4.90;;
50968;SDS011;36982;51.474;7.228;2024-01-30T02:20:59;9.30;;;4.70;;
50968;SDS011;36982;51.474;7.228;2024-01-30T02:23:46;8.13;;;4.97;;
50968;SDS011;36982;51.474;7.228;2024-01-30T02:26:13;7.70;;;5.27;;
50968;SDS011;36982;51.474;7.228;2024-01-30T02:28:39;9.97;;;5.03;;
50968;SDS011;36982;51.474;7.228;2024-01-30T02:31:04;6.20;;;4.20;;
50968;SDS011;36982;51.474;7.228;2024-01-30T02:33:30;6.47;;;4.63;;
50968;SDS011;36982;51.474;7.228;2024-01-30T02:35:56;7.17;;;4.67;;
50968;SDS011;36982;51.474;7.228;2024-01-30T02:38:21;7.50;;;4.67;;
50968;SDS011;36982;51.474;7.228;2024-01-30T02:40:48;8.13;;;4.90;;
50968;SDS011;36982;51.474;7.228;2024-01-30T02:43:14;7.23;;;5.00;;
50968;SDS011;36982;51.474;7.228;2024-01-30T02:45:41;8.03;;;4.23;;
50968;SDS011;36982;51.474;7.228;2024-01-30T02:48:06;6.83;;;4.20;;
50968;SDS011;36982;51.474;7.228;2024-01-30T02:50:32;7.27;;;4.57;;
50968;SDS011;36982;51.474;7.228;2024-01-30T02:52:58;6.90;;;4.27;;
50968;SDS011;36982;51.474;7.228;2024-01-30T02:55:23;7.57;;;4.80;;
50968;SDS011;36982;51.474;7.228;2024-01-30T02:57:49;5.80;;;4.17;;
50968;SDS011;36982;51.474;7.228;2024-01-30T03:00:15;8.30;;;5.30;;
50968;SDS011;36982;51.474;7.228;2024-01-30T03:02:40;5.63;;;4.20;;
50968;SDS011;36982;51.474;7.228;2024-01-30T03:05:06;8.97;;;5.90;;
50968;SDS011;36982;51.474;7.228;2024-01-30T03:07:33;8.20;;;5.17;;
50968;SDS011;36982;51.474;7.228;2024-01-30T03:09:59;6.90;;;4.70;;
50968;SDS011;36982;51.474;7.228;2024-01-30T03:12:24;8.23;;;4.77;;
50968;SDS011;36982;51.474;7.228;2024-01-30T03:14:50;8.60;;;4.87;;
50968;SDS011;36982;51.474;7.228;2024-01-30T03:17:16;8.47;;;5.00;;
50968;SDS011;36982;51.474;7.228;2024-01-30T03:19:42;6.10;;;4.20;;
50968;SDS011;36982;51.474;7.228;2024-01-30T03:22:07;8.53;;;5.07;;
50968;SDS011;36982;51.474;7.228;2024-01-30T03:24:33;8.67;;;4.57;;
50968;SDS011;36982;51.474;7.228;2024-01-30T03:26:59;6.27;;;4.70;;
50968;SDS011;36982;51.474;7.228;2024-01-30T03:29:24;6.17;;;4.37;;
50968;SDS011;36982;51.474;7.228;2024-01-30T03:31:50;6.50;;;4.67;;
50968;SDS011;36982;51.474;7.228;2024-01-30T03:34:15;5.77;;;4.40;;
50968;SDS011;36982;51.474;7.228;2024-01-30T03:36:41;9.60;;;5.10;;
50968;SDS011;36982;51.474;7.228;2024-01-30T03:39:07;8.33;;;4.80;;
50968;SDS011;36982;51.474;7.228;2024-01-30T03:41:32;10.67;;;4.60;;
50968;SDS011;36982;51.474;7.228;2024-01-30T03:43:58;8.67;;;4.40;;
50968;SDS011;36982;51.474;7.228;2024-01-30T03:46:24;5.77;;;4.17;;
50968;SDS011;36982;51.474;7.228;2024-01-30T03:48:50;5.97;;;4.40;;
50968;SDS011;36982;51.474;7.228;2024-01-30T03:51:15;7.97;;;4.00;;
50968;SDS011;36982;51.474;7.228;2024-01-30T03:53:41;7.67;;;4.47;;
50968;SDS011;36982;51.474;7.228;2024-01-30T03:56:08;9.37;;;4.60;;
50968;SDS011;36982;51.474;7.228;2024-01-30T03:58:34;7.20;;;4.47;;
50968;SDS011;36982;51.474;7.228;2024-01-30T04:00:59;7.10;;;4.57;;
50968;SDS011;36982;51.474;7.228;2024-01-30T04:03:25;7.90;;;4.40;;
50968;SDS011;36982;51.474;7.228;2024-01-30T04:05:51;6.53;;;3.80;;
50968;SDS011;36982;51.474;7.228;2024-01-30T04:08:17;6.00;;;3.93;;
50968;SDS011;36982;51.474;7.228;2024-01-30T04:10:43;6.00;;;4.17;;
50968;SDS011;36982;51.474;7.228;2024-01-30T04:13:09;7.33;;;4.70;;
50968;SDS011;36982;51.474;7.228;2024-01-30T04:15:35;5.77;;;4.27;;
50968;SDS011;36982;51.474;7.228;2024-01-30T04:18:00;8.70;;;4.40;;
50968;SDS011;36982;51.474;7.228;2024-01-30T04:20:26;6.17;;;3.97;;
50968;SDS011;36982;51.474;7.228;2024-01-30T04:22:52;7.07;;;4.20;;
50968;SDS011;36982;51.474;7.228;2024-01-30T04:25:18;6.80;;;4.40;;
50968;SDS011;36982;51.474;7.228;2024-01-30T04:27:43;6.37;;;3.93;;
50968;SDS011;36982;51.474;7.228;2024-01-30T04:30:09;4.73;;;3.90;;
50968;SDS011;36982;51.474;7.228;2024-01-30T04:32:35;5.17;;;3.67;;
50968;SDS011;36982;51.474;7.228;2024-01-30T04:35:01;6.20;;;4.00;;
50968;SDS011;36982;51.474;7.228;2024-01-30T04:37:27;6.10;;;4.33;;
50968;SDS011;36982;51.474;7.228;2024-01-30T04:39:53;6.10;;;4.10;;
50968;SDS011;36982;51.474;7.228;2024-01-30T04:42:18;7.23;;;4.50;;
50968;SDS011;36982;51.474;7.228;2024-01-30T04:44:44;5.57;;;3.77;;
50968;SDS011;36982;51.474;7.228;2024-01-30T04:47:10;4.50;;;3.43;;
50968;SDS011;36982;51.474;7.228;2024-01-30T04:49:38;7.23;;;4.10;;
50968;SDS011;36982;51.474;7.228;2024-01-30T04:52:04;6.20;;;4.40;;
50968;SDS011;36982;51.474;7.228;2024-01-30T04:54:30;5.83;;;4.17;;
50968;SDS011;36982;51.474;7.228;2024-01-30T04:56:56;6.70;;;3.93;;
50968;SDS011;36982;51.474;7.228;2024-01-30T04:59:21;7.53;;;4.13;;
50968;SDS011;36982;51.474;7.228;2024-01-30T05:01:47;5.70;;;3.80;;
50968;SDS011;36982;51.474;7.228;2024-01-30T05:04:12;5.90;;;3.70;;
50968;SDS011;36982;51.474;7.228;2024-01-30T05:06:38;4.77;;;3.43;;
50968;SDS011;36982;51.474;7.228;2024-01-30T05:09:04;7.87;;;4.50;;
50968;SDS011;36982;51.474;7.228;2024-01-30T05:11:29;7.00;;;3.83;;
50968;SDS011;36982;51.474;7.228;2024-01-30T05:13:55;5.60;;;3.90;;
50968;SDS011;36982;51.474;7.228;2024-01-30T05:16:21;6.30;;;4.37;;
50968;SDS011;36982;51.474;7.228;2024-01-30T05:18:46;5.70;;;3.67;;
50968;SDS011;36982;51.474;7.228;2024-01-30T05:21:12;6.30;;;3.80;;
50968;SDS011;36982;51.474;7.228;2024-01-30T05:23:38;4.77;;;3.63;;
50968;SDS011;36982;51.474;7.228;2024-01-30T05:26:03;7.10;;;4.40;;
50968;SDS011;36982;51.474;7.228;2024-01-30T05:28:29;5.20;;;3.83;;
50968;SDS011;36982;51.474;7.228;2024-01-30T05:30:55;7.23;;;3.87;;
50968;SDS011;36982;51.474;7.228;2024-01-30T05:33:21;5.23;;;3.60;;
50968;SDS011;36982;51.474;7.228;2024-01-30T05:35:47;5.10;;;3.90;;
50968;SDS011;36982;51.474;7.228;2024-01-30T05:38:13;7.60;;;4.30;;
50968;SDS011;36982;51.474;7.228;2024-01-30T05:40:41;7.47;;;4.23;;
50968;SDS011;36982;51.474;7.228;2024-01-30T05:43:06;6.97;;;4.10;;
50968;SDS011;36982;51.474;7.228;2024-01-30T05:45:33;6.90;;;3.90;;
50968;SDS011;36982;51.474;7.228;2024-01-30T05:48:00;5.90;;;4.00;;
50968;SDS011;36982;51.474;7.228;2024-01-30T05:50:25;7.30;;;4.27;;
50968;SDS011;36982;51.474;7.228;2024-01-30T05:52:52;5.20;;;3.67;;
50968;SDS011;36982;51.474;7.228;2024-01-30T05:55:17;5.00;;;3.33;;
50968;SDS011;36982;51.474;7.228;2024-01-30T05:57:43;6.50;;;4.00;;
50968;SDS011;36982;51.474;7.228;2024-01-30T06:00:09;5.63;;;3.90;;
50968;SDS011;36982;51.474;7.228;2024-01-30T06:02:35;5.50;;;3.33;;
50968;SDS011;36982;51.474;7.228;2024-01-30T06:05:01;5.50;;;3.77;;
50968;SDS011;36982;51.474;7.228;2024-01-30T06:07:27;4.40;;;3.27;;
50968;SDS011;36982;51.474;7.228;2024-01-30T06:09:53;5.03;;;3.53;;
50968;SDS011;36982;51.474;7.228;2024-01-30T06:12:19;7.20;;;3.20;;
50968;SDS011;36982;51.474;7.228;2024-01-30T06:14:44;6.87;;;3.57;;
50968;SDS011;36982;51.474;7.228;2024-01-30T06:17:10;6.57;;;3.53;;
50968;SDS011;36982;51.474;7.228;2024-01-30T06:19:37;7.57;;;3.60;;
50968;SDS011;36982;51.474;7.228;2024-01-30T06:22:04;5.80;;;3.63;;
50968;SDS011;36982;51.474;7.228;2024-01-30T06:24:29;5.10;;;3.67;;
50968;SDS011;36982;51.474;7.228;2024-01-30T06:26:55;7.40;;;4.53;;
50968;SDS011;36982;51.474;7.228;2024-01-30T06:29:21;7.03;;;3.90;;
50968;SDS011;36982;51.474;7.228;2024-01-30T06:31:47;6.60;;;3.70;;
50968;SDS011;36982;51.474;7.228;2024-01-30T06:34:12;4.97;;;3.40;;
50968;SDS011;36982;51.474;7.228;2024-01-30T06:36:38;8.00;;;3.67;;
50968;SDS011;36982;51.474;7.228;2024-01-30T06:39:04;5.50;;;3.83;;
50968;SDS011;36982;51.474;7.228;2024-01-30T06:41:30;5.53;;;3.63;;
50968;SDS011;36982;51.474;7.228;2024-01-30T06:43:56;7.97;;;3.83;;
50968;SDS011;36982;51.474;7.228;2024-01-30T06:46:22;6.57;;;3.80;;
50968;SDS011;36982;51.474;7.228;2024-01-30T06:48:48;7.03;;;4.13;;
50968;SDS011;36982;51.474;7.228;2024-01-30T06:51:13;4.73;;;3.37;;
50968;SDS011;36982;51.474;7.228;2024-01-30T06:53:39;5.60;;;3.73;;
50968;SDS011;36982;51.474;7.228;2024-01-30T06:56:05;7.70;;;3.60;;
50968;SDS011;36982;51.474;7.228;2024-01-30T06:58:31;6.70;;;3.70;;
50968;SDS011;36982;51.474;7.228;2024-01-30T07:00:57;6.93;;;3.80;;
50968;SDS011;36982;51.474;7.228;2024-01-30T07:03:23;6.20;;;3.20;;
50968;SDS011;36982;51.474;7.228;2024-01-30T07:05:49;7.27;;;3.63;;
50968;SDS011;36982;51.474;7.228;2024-01-30T07:08:15;6.27;;;4.10;;
50968;SDS011;36982;51.474;7.228;2024-01-30T07:10:42;5.17;;;3.90;;
50968;SDS011;36982;51.474;7.228;2024-01-30T07:13:08;4.60;;;3.20;;
50968;SDS011;36982;51.474;7.228;2024-01-30T07:15:35;5.97;;;3.80;;
50968;SDS011;36982;51.474;7.228;2024-01-30T07:18:02;7.37;;;3.77;;
50968;SDS011;36982;51.474;7.228;2024-01-30T07:20:28;7.50;;;3.90;;
50968;SDS011;36982;51.474;7.228;2024-01-30T07:22:55;5.80;;;3.77;;
50968;SDS011;36982;51.474;7.228;2024-01-30T07:25:21;6.47;;;3.57;;
50968;SDS011;36982;51.474;7.228;2024-01-30T07:27:51;5.87;;;3.80;;
50968;SDS011;36982;51.474;7.228;2024-01-30T07:30:20;5.67;;;3.90;;
50968;SDS011;36982;51.474;7.228;2024-01-30T07:32:46;5.87;;;3.67;;
50968;SDS011;36982;51.474;7.228;2024-01-30T07:35:12;6.63;;;4.00;;
50968;SDS011;36982;51.474;7.228;2024-01-30T07:37:38;6.80;;;3.90;;
50968;SDS011;36982;51.474;7.228;2024-01-30T07:40:04;10.10;;;4.07;;
50968;SDS011;36982;51.474;7.228;2024-01-30T07:42:31;9.50;;;4.67;;
50968;SDS011;36982;51.474;7.228;2024-01-30T07:44:57;7.90;;;5.10;;
50968;SDS011;36982;51.474;7.228;2024-01-30T07:47:23;5.70;;;3.93;;
50968;SDS011;36982;51.474;7.228;2024-01-30T07:49:58;12.67;;;6.93;;
50968;SDS011;36982;51.474;7.228;2024-01-30T07:52:24;11.97;;;7.10;;
50968;SDS011;36982;51.474;7.228;2024-01-30T07:54:50;8.90;;;5.77;;
50968;SDS011;36982;51.474;7.228;2024-01-30T07:57:16;7.50;;;3.83;;
50968;SDS011;36982;51.474;7.228;2024-01-30T07:59:43;8.93;;;4.17;;
50968;SDS011;36982;51.474;7.228;2024-01-30T08:04:44;8.27;;;4.10;;
50968;SDS011;36982;51.474;7.228;2024-01-30T08:07:13;7.43;;;4.03;;
50968;SDS011;36982;51.474;7.228;2024-01-30T08:09:39;6.47;;;4.17;;
50968;SDS011;36982;51.474;7.228;2024-01-30T08:12:04;8.57;;;3.97;;
50968;SDS011;36982;51.474;7.228;2024-01-30T08:14:30;6.50;;;4.00;;
50968;SDS011;36982;51.474;7.228;2024-01-30T08:17:05;7.73;;;4.03;;
50968;SDS011;36982;51.474;7.228;2024-01-30T08:19:32;5.83;;;4.00;;
50968;SDS011;36982;51.474;7.228;2024-01-30T08:21:58;6.80;;;3.90;;
50968;SDS011;36982;51.474;7.228;2024-01-30T08:24:23;7.27;;;3.47;;
50968;SDS011;36982;51.474;7.228;2024-01-30T08:26:49;5.73;;;4.20;;
50968;SDS011;36982;51.474;7.228;2024-01-30T08:29:15;4.93;;;3.60;;
50968;SDS011;36982;51.474;7.228;2024-01-30T08:31:49;7.03;;;3.90;;
50968;SDS011;36982;51.474;7.228;2024-01-30T08:34:15;5.93;;;3.40;;
50968;SDS011;36982;51.474;7.228;2024-01-30T08:36:40;7.23;;;3.97;;
50968;SDS011;36982;51.474;7.228;2024-01-30T08:39:06;4.43;;;3.60;;
50968;SDS011;36982;51.474;7.228;2024-01-30T08:41:48;6.03;;;3.63;;
50968;SDS011;36982;51.474;7.228;2024-01-30T08:44:14;6.97;;;3.50;;
50968;SDS011;36982;51.474;7.228;2024-01-30T08:46:39;6.37;;;3.30;;
50968;SDS011;36982;51.474;7.228;2024-01-30T08:49:11;4.23;;;3.07;;
50968;SDS011;36982;51.474;7.228;2024-01-30T08:51:38;6.00;;;3.77;;
50968;SDS011;36982;51.474;7.228;2024-01-30T08:54:04;7.63;;;3.63;;
50968;SDS011;36982;51.474;7.228;2024-01-30T08:56:30;6.77;;;3.80;;
50968;SDS011;36982;51.474;7.228;2024-01-30T08:58:56;6.37;;;3.17;;
50968;SDS011;36982;51.474;7.228;2024-01-30T09:01:21;9.33;;;3.40;;
50968;SDS011;36982;51.474;7.228;2024-01-30T09:03:47;8.53;;;3.90;;
50968;SDS011;36982;51.474;7.228;2024-01-30T09:06:13;11.67;;;4.67;;
50968;SDS011;36982;51.474;7.228;2024-01-30T09:08:39;10.67;;;5.00;;
50968;SDS011;36982;51.474;7.228;2024-01-30T09:11:14;8.83;;;4.57;;
50968;SDS011;36982;51.474;7.228;2024-01-30T09:13:40;7.40;;;3.80;;
50968;SDS011;36982;51.474;7.228;2024-01-30T09:16:06;8.53;;;4.13;;
50968;SDS011;36982;51.474;7.228;2024-01-30T09:18:32;6.10;;;3.73;;
50968;SDS011;36982;51.474;7.228;2024-01-30T09:20:58;5.90;;;3.40;;
50968;SDS011;36982;51.474;7.228;2024-01-30T09:23:38;5.83;;;3.90;;
50968;SDS011;36982;51.474;7.228;2024-01-30T09:26:04;5.63;;;3.30;;
50968;SDS011;36982;51.474;7.228;2024-01-30T09:28:29;6.77;;;4.30;;
50968;SDS011;36982;51.474;7.228;2024-01-30T09:30:55;5.67;;;3.20;;
50968;SDS011;36982;51.474;7.228;2024-01-30T09:33:20;6.37;;;3.53;;
50968;SDS011;36982;51.474;7.228;2024-01-30T09:35:46;6.67;;;3.40;;
50968;SDS011;36982;51.474;7.228;2024-01-30T09:38:11;4.90;;;3.30;;
50968;SDS011;36982;51.474;7.228;2024-01-30T09:40:37;4.97;;;3.23;;
50968;SDS011;36982;51.474;7.228;2024-01-30T09:43:03;4.57;;;2.80;;
50968;SDS011;36982;51.474;7.228;2024-01-30T09:45:29;4.00;;;2.70;;
50968;SDS011;36982;51.474;7.228;2024-01-30T09:47:58;3.87;;;3.13;;
50968;SDS011;36982;51.474;7.228;2024-01-30T09:50:24;6.73;;;3.77;;
50968;SDS011;36982;51.474;7.228;2024-01-30T09:52:51;11.73;;;3.10;;
50968;SDS011;36982;51.474;7.228;2024-01-30T09:55:19;6.13;;;3.20;;
50968;SDS011;36982;51.474;7.228;2024-01-30T09:57:45;5.80;;;2.97;;
50968;SDS011;36982;51.474;7.228;2024-01-30T10:00:12;3.07;;;2.40;;
50968;SDS011;36982;51.474;7.228;2024-01-30T10:02:38;6.00;;;2.90;;
50968;SDS011;36982;51.474;7.228;2024-01-30T10:05:04;3.97;;;2.90;;
50968;SDS011;36982;51.474;7.228;2024-01-30T10:07:31;3.93;;;2.97;;
50968;SDS011;36982;51.474;7.228;2024-01-30T10:09:56;5.90;;;3.33;;
50968;SDS011;36982;51.474;7.228;2024-01-30T10:12:22;4.40;;;3.17;;
50968;SDS011;36982;51.474;7.228;2024-01-30T10:14:48;4.20;;;2.93;;
50968;SDS011;36982;51.474;7.228;2024-01-30T10:17:14;4.87;;;2.80;;
50968;SDS011;36982;51.474;7.228;2024-01-30T10:19:40;8.13;;;3.43;;
50968;SDS011;36982;51.474;7.228;2024-01-30T10:22:07;6.00;;;2.97;;
50968;SDS011;36982;51.474;7.228;2024-01-30T10:24:34;5.63;;;3.00;;
50968;SDS011;36982;51.474;7.228;2024-01-30T10:26:59;4.57;;;2.80;;
50968;SDS011;36982;51.474;7.228;2024-01-30T10:29:26;4.23;;;3.10;;
50968;SDS011;36982;51.474;7.228;2024-01-30T10:34:54;4.73;;;2.90;;
50968;SDS011;36982;51.474;7.228;2024-01-30T10:39:50;4.73;;;3.40;;
50968;SDS011;36982;51.474;7.228;2024-01-30T10:42:20;4.87;;;3.00;;
50968;SDS011;36982;51.474;7.228;2024-01-30T10:50:34;6.10;;;3.13;;
50968;SDS011;36982;51.474;7.228;2024-01-30T10:53:01;4.30;;;2.60;;
50968;SDS011;36982;51.474;7.228;2024-01-30T10:55:36;6.13;;;3.63;;
50968;SDS011;36982;51.474;7.228;2024-01-30T10:58:05;4.67;;;3.37;;
50968;SDS011;36982;51.474;7.228;2024-01-30T11:00:32;4.83;;;3.13;;
50968;SDS011;36982;51.474;7.228;2024-01-30T11:02:59;5.10;;;3.27;;
50968;SDS011;36982;51.474;7.228;2024-01-30T11:05:25;5.83;;;3.20;;
50968;SDS011;36982;51.474;7.228;2024-01-30T11:07:52;5.90;;;3.30;;
50968;SDS011;36982;51.474;7.228;2024-01-30T11:10:18;5.17;;;2.80;;
50968;SDS011;36982;51.474;7.228;2024-01-30T11:12:45;4.67;;;3.17;;
50968;SDS011;36982;51.474;7.228;2024-01-30T11:15:15;6.17;;;2.83;;
50968;SDS011;36982;51.474;7.228;2024-01-30T11:20:23;6.03;;;3.20;;
50968;SDS011;36982;51.474;7.228;2024-01-30T11:22:51;8.50;;;3.30;;
50968;SDS011;36982;51.474;7.228;2024-01-30T11:25:21;5.57;;;3.07;;
50968;SDS011;36982;51.474;7.228;2024-01-30T11:27:49;7.17;;;3.47;;
50968;SDS011;36982;51.474;7.228;2024-01-30T11:30:22;7.17;;;3.93;;
50968;SDS011;36982;51.474;7.228;2024-01-30T11:35:56;6.33;;;3.40;;
50968;SDS011;36982;51.474;7.228;2024-01-30T11:38:23;8.10;;;3.70;;
50968;SDS011;36982;51.474;7.228;2024-01-30T11:40:51;5.87;;;2.60;;
50968;SDS011;36982;51.474;7.228;2024-01-30T11:43:17;14.50;;;3.70;;
50968;SDS011;36982;51.474;7.228;2024-01-30T11:45:43;4.97;;;2.87;;
50968;SDS011;36982;51.474;7.228;2024-01-30T11:48:11;5.73;;;3.50;;
50968;SDS011;36982;51.474;7.228;2024-01-30T11:50:37;6.17;;;3.50;;
50968;SDS011;36982;51.474;7.228;2024-01-30T11:53:04;7.87;;;3.43;;
50968;SDS011;36982;51.474;7.228;2024-01-30T11:55:30;7.40;;;3.20;;
50968;SDS011;36982;51.474;7.228;2024-01-30T11:57:59;7.53;;;3.50;;
50968;SDS011;36982;51.474;7.228;2024-01-30T12:00:27;8.40;;;3.90;;
50968;SDS011;36982;51.474;7.228;2024-01-30T12:02:53;4.67;;;3.20;;
50968;SDS011;36982;51.474;7.228;2024-01-30T12:05:23;7.77;;;4.20;;
50968;SDS011;36982;51.474;7.228;2024-01-30T12:07:50;6.67;;;3.63;;
50968;SDS011;36982;51.474;7.228;2024-01-30T12:10:16;5.57;;;3.63;;
50968;SDS011;36982;51.474;7.228;2024-01-30T12:12:43;8.37;;;3.83;;
50968;SDS011;36982;51.474;7.228;2024-01-30T12:15:13;6.83;;;3.63;;
50968;SDS011;36982;51.474;7.228;2024-01-30T12:17:39;4.87;;;3.47;;
50968;SDS011;36982;51.474;7.228;2024-01-30T12:20:17;7.50;;;3.60;;
50968;SDS011;36982;51.474;7.228;2024-01-30T12:22:45;8.20;;;4.30;;
50968;SDS011;36982;51.474;7.228;2024-01-30T12:25:13;8.90;;;3.73;;
50968;SDS011;36982;51.474;7.228;2024-01-30T12:27:44;9.03;;;3.77;;
50968;SDS011;36982;51.474;7.228;2024-01-30T12:30:17;7.20;;;3.63;;
50968;SDS011;36982;51.474;7.228;2024-01-30T12:32:45;6.87;;;4.00;;
50968;SDS011;36982;51.474;7.228;2024-01-30T12:37:39;10.60;;;4.27;;
50968;SDS011;36982;51.474;7.228;2024-01-30T12:40:06;6.73;;;3.70;;
50968;SDS011;36982;51.474;7.228;2024-01-30T12:42:33;10.00;;;4.17;;
50968;SDS011;36982;51.474;7.228;2024-01-30T12:44:59;7.50;;;4.17;;
50968;SDS011;36982;51.474;7.228;2024-01-30T12:47:25;6.10;;;4.37;;
50968;SDS011;36982;51.474;7.228;2024-01-30T12:49:51;11.37;;;4.50;;
50968;SDS011;36982;51.474;7.228;2024-01-30T12:52:18;8.77;;;3.50;;
50968;SDS011;36982;51.474;7.228;2024-01-30T12:54:45;7.50;;;4.03;;
50968;SDS011;36982;51.474;7.228;2024-01-30T12:57:11;6.67;;;4.27;;
50968;SDS011;36982;51.474;7.228;2024-01-30T12:59:36;6.27;;;3.80;;
50968;SDS011;36982;51.474;7.228;2024-01-30T13:02:02;7.73;;;3.70;;
50968;SDS011;36982;51.474;7.228;2024-01-30T13:04:28;6.13;;;3.80;;
50968;SDS011;36982;51.474;7.228;2024-01-30T13:06:54;10.00;;;4.30;;
50968;SDS011;36982;51.474;7.228;2024-01-30T13:09:20;9.40;;;4.07;;
50968;SDS011;36982;51.474;7.228;2024-01-30T13:11:46;8.83;;;4.23;;
50968;SDS011;36982;51.474;7.228;2024-01-30T13:14:11;8.50;;;4.00;;
50968;SDS011;36982;51.474;7.228;2024-01-30T13:16:37;6.80;;;4.17;;
50968;SDS011;36982;51.474;7.228;2024-01-30T13:19:03;9.50;;;4.03;;
50968;SDS011;36982;51.474;7.228;2024-01-30T13:21:29;7.33;;;4.00;;
50968;SDS011;36982;51.474;7.228;2024-01-30T13:23:54;9.57;;;4.90;;
50968;SDS011;36982;51.474;7.228;2024-01-30T13:26:20;10.33;;;4.67;;
50968;SDS011;36982;51.474;7.228;2024-01-30T13:28:46;7.60;;;3.93;;
50968;SDS011;36982;51.474;7.228;2024-01-30T13:31:12;7.03;;;4.17;;
50968;SDS011;36982;51.474;7.228;2024-01-30T13:33:39;8.47;;;5.03;;
50968;SDS011;36982;51.474;7.228;2024-01-30T13:36:06;7.80;;;4.13;;
50968;SDS011;36982;51.474;7.228;2024-01-30T13:38:33;7.23;;;4.00;;
50968;SDS011;36982;51.474;7.228;2024-01-30T13:40:59;8.33;;;4.67;;
50968;SDS011;36982;51.474;7.228;2024-01-30T13:43:25;6.77;;;4.20;;
50968;SDS011;36982;51.474;7.228;2024-01-30T13:45:51;9.07;;;4.57;;
50968;SDS011;36982;51.474;7.228;2024-01-30T13:48:17;8.03;;;4.70;;
50968;SDS011;36982;51.474;7.228;2024-01-30T13:50:43;8.30;;;4.40;;
50968;SDS011;36982;51.474;7.228;2024-01-30T13:53:08;9.00;;;5.07;;
50968;SDS011;36982;51.474;7.228;2024-01-30T13:55:34;9.07;;;4.97;;
50968;SDS011;36982;51.474;7.228;2024-01-30T13:58:00;6.77;;;4.67;;
50968;SDS011;36982;51.474;7.228;2024-01-30T14:00:30;7.60;;;4.27;;
50968;SDS011;36982;51.474;7.228;2024-01-30T14:03:01;13.00;;;4.53;;
50968;SDS011;36982;51.474;7.228;2024-01-30T14:05:28;7.90;;;4.70;;
50968;SDS011;36982;51.474;7.228;2024-01-30T14:07:53;10.23;;;4.33;;
50968;SDS011;36982;51.474;7.228;2024-01-30T14:10:20;8.63;;;4.20;;
50968;SDS011;36982;51.474;7.228;2024-01-30T14:12:45;8.40;;;4.50;;
50968;SDS011;36982;51.474;7.228;2024-01-30T14:15:13;8.63;;;5.10;;
50968;SDS011;36982;51.474;7.228;2024-01-30T14:17:40;8.17;;;4.40;;
50968;SDS011;36982;51.474;7.228;2024-01-30T14:20:18;10.07;;;4.83;;
50968;SDS011;36982;51.474;7.228;2024-01-30T14:22:43;8.43;;;4.73;;
50968;SDS011;36982;51.474;7.228;2024-01-30T14:25:09;7.40;;;4.10;;
50968;SDS011;36982;51.474;7.228;2024-01-30T14:27:35;9.00;;;4.30;;
50968;SDS011;36982;51.474;7.228;2024-01-30T14:30:01;6.77;;;4.07;;
50968;SDS011;36982;51.474;7.228;2024-01-30T14:32:28;9.67;;;4.90;;
50968;SDS011;36982;51.474;7.228;2024-01-30T14:34:54;10.23;;;4.73;;
50968;SDS011;36982;51.474;7.228;2024-01-30T14:37:22;10.67;;;4.93;;
50968;SDS011;36982;51.474;7.228;2024-01-30T14:39:49;9.13;;;4.37;;
50968;SDS011;36982;51.474;7.228;2024-01-30T14:42:14;6.97;;;4.10;;
50968;SDS011;36982;51.474;7.228;2024-01-30T14:44:41;7.67;;;4.80;;
50968;SDS011;36982;51.474;7.228;2024-01-30T14:47:06;7.93;;;4.43;;
50968;SDS011;36982;51.474;7.228;2024-01-30T14:49:33;9.60;;;4.57;;
50968;SDS011;36982;51.474;7.228;2024-01-30T14:51:58;7.53;;;4.87;;
50968;SDS011;36982;51.474;7.228;2024-01-30T14:54:25;8.67;;;4.70;;
50968;SDS011;36982;51.474;7.228;2024-01-30T14:56:51;12.43;;;5.07;;
50968;SDS011;36982;51.474;7.228;2024-01-30T14:59:17;8.60;;;4.73;;
50968;SDS011;36982;51.474;7.228;2024-01-30T15:01:57;8.47;;;5.27;;
50968;SDS011;36982;51.474;7.228;2024-01-30T15:04:23;8.57;;;4.97;;
50968;SDS011;36982;51.474;7.228;2024-01-30T15:06:49;6.00;;;4.10;;